sensor_id;sensor_type;location;lat;lon;timestamp;P1;durP1;ratioP1;P2;durP2;ratioP2
19057;SDS011;9662;53.612;9.914;2022-12-07T00:00:07;14.00;;;7.28;;
19057;SDS011;9662;53.612;9.914;2022-12-07T00:02:35;8.68;;;7.25;;
19057;SDS011;9662;53.612;9.914;2022-12-07T00:05:02;8.05;;;7.38;;
19057;SDS011;9662;53.612;9.914;2022-12-07T00:07:29;10.95;;;7.03;;
19057;SDS011;9662;53.612;9.914;2022-12-07T00:09:56;8.50;;;7.70;;
19057;SDS011;9662;53.612;9.914;2022-12-07T00:12:23;8.25;;;6.93;;
19057;SDS011;9662;53.612;9.914;2022-12-07T00:14:52;9.20;;;7.03;;
19057;SDS011;9662;53.612;9.914;2022-12-07T00:17:19;9.65;;;6.90;;
19057;SDS011;9662;53.612;9.914;2022-12-07T00:19:46;9.60;;;7.85;;
19057;SDS011;9662;53.612;9.914;2022-12-07T00:22:13;10.38;;;8.00;;
19057;SDS011;9662;53.612;9.914;2022-12-07T00:24:40;11.50;;;7.32;;
19057;SDS011;9662;53.612;9.914;2022-12-07T00:27:07;8.05;;;7.32;;
19057;SDS011;9662;53.612;9.914;2022-12-07T00:29:34;11.02;;;6.50;;
19057;SDS011;9662;53.612;9.914;2022-12-07T00:32:03;8.70;;;6.38;;
19057;SDS011;9662;53.612;9.914;2022-12-07T00:34:30;11.82;;;7.85;;
19057;SDS011;9662;53.612;9.914;2022-12-07T00:36:57;8.60;;;7.00;;
19057;SDS011;9662;53.612;9.914;2022-12-07T00:39:25;7.75;;;6.78;;
19057;SDS011;9662;53.612;9.914;2022-12-07T00:41:52;7.10;;;6.40;;
19057;SDS011;9662;53.612;9.914;2022-12-07T00:44:19;6.43;;;5.93;;
19057;SDS011;9662;53.612;9.914;2022-12-07T00:46:46;7.30;;;6.60;;
19057;SDS011;9662;53.612;9.914;2022-12-07T00:49:14;7.90;;;6.50;;
19057;SDS011;9662;53.612;9.914;2022-12-07T00:51:42;6.97;;;6.27;;
19057;SDS011;9662;53.612;9.914;2022-12-07T00:54:09;6.70;;;6.13;;
19057;SDS011;9662;53.612;9.914;2022-12-07T00:56:36;7.22;;;5.78;;
19057;SDS011;9662;53.612;9.914;2022-12-07T00:59:03;6.60;;;5.80;;
19057;SDS011;9662;53.612;9.914;2022-12-07T01:01:32;7.77;;;5.83;;
19057;SDS011;9662;53.612;9.914;2022-12-07T01:03:59;6.55;;;5.93;;
19057;SDS011;9662;53.612;9.914;2022-12-07T01:06:29;7.38;;;6.07;;
19057;SDS011;9662;53.612;9.914;2022-12-07T01:08:56;8.00;;;5.85;;
19057;SDS011;9662;53.612;9.914;2022-12-07T01:11:25;6.18;;;5.70;;
19057;SDS011;9662;53.612;9.914;2022-12-07T01:13:53;9.13;;;5.50;;
19057;SDS011;9662;53.612;9.914;2022-12-07T01:16:21;6.60;;;5.68;;
19057;SDS011;9662;53.612;9.914;2022-12-07T01:18:49;7.68;;;5.25;;
19057;SDS011;9662;53.612;9.914;2022-12-07T01:21:17;7.93;;;5.30;;
19057;SDS011;9662;53.612;9.914;2022-12-07T01:23:47;6.50;;;5.53;;
19057;SDS011;9662;53.612;9.914;2022-12-07T01:26:15;5.53;;;5.05;;
19057;SDS011;9662;53.612;9.914;2022-12-07T01:28:43;5.63;;;5.07;;
19057;SDS011;9662;53.612;9.914;2022-12-07T01:31:11;6.07;;;5.22;;
19057;SDS011;9662;53.612;9.914;2022-12-07T01:33:40;7.30;;;4.75;;
19057;SDS011;9662;53.612;9.914;2022-12-07T01:36:08;5.47;;;5.07;;
19057;SDS011;9662;53.612;9.914;2022-12-07T01:38:35;9.65;;;5.85;;
19057;SDS011;9662;53.612;9.914;2022-12-07T01:41:04;6.20;;;5.68;;
19057;SDS011;9662;53.612;9.914;2022-12-07T01:43:32;6.88;;;4.80;;
19057;SDS011;9662;53.612;9.914;2022-12-07T01:45:59;7.20;;;5.03;;
19057;SDS011;9662;53.612;9.914;2022-12-07T01:48:27;6.60;;;5.97;;
19057;SDS011;9662;53.612;9.914;2022-12-07T01:50:55;6.40;;;4.82;;
19057;SDS011;9662;53.612;9.914;2022-12-07T01:53:24;9.32;;;5.47;;
19057;SDS011;9662;53.612;9.914;2022-12-07T01:55:52;6.05;;;5.45;;
19057;SDS011;9662;53.612;9.914;2022-12-07T01:58:21;5.32;;;4.85;;
19057;SDS011;9662;53.612;9.914;2022-12-07T02:00:49;5.55;;;4.75;;
19057;SDS011;9662;53.612;9.914;2022-12-07T02:03:18;6.45;;;4.93;;
19057;SDS011;9662;53.612;9.914;2022-12-07T02:05:45;4.43;;;4.18;;
19057;SDS011;9662;53.612;9.914;2022-12-07T02:08:13;5.10;;;4.60;;
19057;SDS011;9662;53.612;9.914;2022-12-07T02:10:40;8.02;;;5.40;;
19057;SDS011;9662;53.612;9.914;2022-12-07T02:13:08;6.53;;;4.32;;
19057;SDS011;9662;53.612;9.914;2022-12-07T02:15:45;5.35;;;4.97;;
19057;SDS011;9662;53.612;9.914;2022-12-07T02:18:16;6.13;;;4.70;;
19057;SDS011;9662;53.612;9.914;2022-12-07T02:20:45;4.63;;;4.18;;
19057;SDS011;9662;53.612;9.914;2022-12-07T02:26:13;4.82;;;4.43;;
19057;SDS011;9662;53.612;9.914;2022-12-07T02:28:56;3.85;;;3.63;;
19057;SDS011;9662;53.612;9.914;2022-12-07T02:31:28;3.90;;;3.70;;
19057;SDS011;9662;53.612;9.914;2022-12-07T02:33:57;5.70;;;3.50;;
19057;SDS011;9662;53.612;9.914;2022-12-07T02:36:28;6.00;;;3.80;;
19057;SDS011;9662;53.612;9.914;2022-12-07T02:38:58;4.47;;;4.07;;
19057;SDS011;9662;53.612;9.914;2022-12-07T02:41:27;3.47;;;3.17;;
19057;SDS011;9662;53.612;9.914;2022-12-07T02:43:58;4.20;;;3.55;;
19057;SDS011;9662;53.612;9.914;2022-12-07T02:46:27;3.95;;;3.65;;
19057;SDS011;9662;53.612;9.914;2022-12-07T02:48:55;4.30;;;3.13;;
19057;SDS011;9662;53.612;9.914;2022-12-07T02:51:24;3.00;;;2.78;;
19057;SDS011;9662;53.612;9.914;2022-12-07T02:53:51;5.50;;;3.03;;
19057;SDS011;9662;53.612;9.914;2022-12-07T02:56:20;2.90;;;2.80;;
19057;SDS011;9662;53.612;9.914;2022-12-07T02:58:54;3.30;;;2.67;;
19057;SDS011;9662;53.612;9.914;2022-12-07T03:01:28;9.90;;;2.80;;
19057;SDS011;9662;53.612;9.914;2022-12-07T03:03:58;2.35;;;2.28;;
19057;SDS011;9662;53.612;9.914;2022-12-07T03:06:30;2.10;;;2.00;;
19057;SDS011;9662;53.612;9.914;2022-12-07T03:09:00;2.80;;;2.42;;
19057;SDS011;9662;53.612;9.914;2022-12-07T03:11:33;2.50;;;2.40;;
19057;SDS011;9662;53.612;9.914;2022-12-07T03:14:02;3.30;;;2.03;;
19057;SDS011;9662;53.612;9.914;2022-12-07T03:16:37;2.55;;;2.00;;
19057;SDS011;9662;53.612;9.914;2022-12-07T03:19:06;3.20;;;1.90;;
19057;SDS011;9662;53.612;9.914;2022-12-07T03:21:36;1.80;;;1.80;;
19057;SDS011;9662;53.612;9.914;2022-12-07T03:24:04;6.60;;;1.90;;
19057;SDS011;9662;53.612;9.914;2022-12-07T03:26:34;3.70;;;1.73;;
19057;SDS011;9662;53.612;9.914;2022-12-07T03:29:05;1.75;;;1.75;;
19057;SDS011;9662;53.612;9.914;2022-12-07T03:31:33;1.75;;;1.75;;
19057;SDS011;9662;53.612;9.914;2022-12-07T03:34:06;2.30;;;1.60;;
19057;SDS011;9662;53.612;9.914;2022-12-07T03:36:35;2.30;;;1.42;;
19057;SDS011;9662;53.612;9.914;2022-12-07T03:39:13;2.70;;;1.55;;
19057;SDS011;9662;53.612;9.914;2022-12-07T03:41:42;1.38;;;1.38;;
19057;SDS011;9662;53.612;9.914;2022-12-07T03:44:09;4.40;;;1.90;;
19057;SDS011;9662;53.612;9.914;2022-12-07T03:46:37;2.85;;;1.73;;
19057;SDS011;9662;53.612;9.914;2022-12-07T03:49:08;1.60;;;1.60;;
19057;SDS011;9662;53.612;9.914;2022-12-07T03:51:39;1.67;;;1.58;;
19057;SDS011;9662;53.612;9.914;2022-12-07T03:54:09;1.60;;;1.50;;
19057;SDS011;9662;53.612;9.914;2022-12-07T03:56:37;1.85;;;1.85;;
19057;SDS011;9662;53.612;9.914;2022-12-07T03:59:05;1.90;;;1.63;;
19057;SDS011;9662;53.612;9.914;2022-12-07T04:01:32;1.87;;;1.60;;
19057;SDS011;9662;53.612;9.914;2022-12-07T04:04:00;2.10;;;1.90;;
19057;SDS011;9662;53.612;9.914;2022-12-07T04:06:28;3.50;;;1.83;;
19057;SDS011;9662;53.612;9.914;2022-12-07T04:08:55;1.58;;;1.58;;
19057;SDS011;9662;53.612;9.914;2022-12-07T04:11:22;1.70;;;1.70;;
19057;SDS011;9662;53.612;9.914;2022-12-07T04:13:50;1.83;;;1.73;;
19057;SDS011;9662;53.612;9.914;2022-12-07T04:16:34;1.92;;;1.83;;
19057;SDS011;9662;53.612;9.914;2022-12-07T04:19:02;3.50;;;2.13;;
19057;SDS011;9662;53.612;9.914;2022-12-07T04:21:30;2.70;;;2.00;;
19057;SDS011;9662;53.612;9.914;2022-12-07T04:23:57;2.50;;;2.40;;
19057;SDS011;9662;53.612;9.914;2022-12-07T04:26:25;3.25;;;1.90;;
19057;SDS011;9662;53.612;9.914;2022-12-07T04:28:52;4.05;;;2.42;;
19057;SDS011;9662;53.612;9.914;2022-12-07T04:31:19;1.88;;;1.88;;
19057;SDS011;9662;53.612;9.914;2022-12-07T04:33:46;3.92;;;2.40;;
19057;SDS011;9662;53.612;9.914;2022-12-07T04:36:13;2.22;;;2.13;;
19057;SDS011;9662;53.612;9.914;2022-12-07T04:38:41;1.95;;;1.85;;
19057;SDS011;9662;53.612;9.914;2022-12-07T04:41:09;4.50;;;2.22;;
19057;SDS011;9662;53.612;9.914;2022-12-07T04:43:36;5.32;;;1.90;;
19057;SDS011;9662;53.612;9.914;2022-12-07T04:46:03;2.67;;;1.92;;
19057;SDS011;9662;53.612;9.914;2022-12-07T04:48:30;3.90;;;2.50;;
19057;SDS011;9662;53.612;9.914;2022-12-07T04:50:58;2.35;;;2.35;;
19057;SDS011;9662;53.612;9.914;2022-12-07T04:53:25;2.88;;;2.15;;
19057;SDS011;9662;53.612;9.914;2022-12-07T04:55:53;2.42;;;2.33;;
19057;SDS011;9662;53.612;9.914;2022-12-07T04:58:20;1.98;;;1.90;;
19057;SDS011;9662;53.612;9.914;2022-12-07T05:00:47;6.00;;;2.22;;
19057;SDS011;9662;53.612;9.914;2022-12-07T05:03:14;1.75;;;1.75;;
19057;SDS011;9662;53.612;9.914;2022-12-07T05:05:42;6.95;;;2.33;;
19057;SDS011;9662;53.612;9.914;2022-12-07T05:08:09;2.23;;;2.10;;
19057;SDS011;9662;53.612;9.914;2022-12-07T05:10:36;2.50;;;2.40;;
19057;SDS011;9662;53.612;9.914;2022-12-07T05:13:04;2.22;;;1.88;;
19057;SDS011;9662;53.612;9.914;2022-12-07T05:15:31;1.93;;;1.93;;
19057;SDS011;9662;53.612;9.914;2022-12-07T05:17:58;4.95;;;2.60;;
19057;SDS011;9662;53.612;9.914;2022-12-07T05:20:26;2.85;;;2.22;;
19057;SDS011;9662;53.612;9.914;2022-12-07T05:22:53;2.50;;;2.40;;
19057;SDS011;9662;53.612;9.914;2022-12-07T05:25:20;2.13;;;2.13;;
19057;SDS011;9662;53.612;9.914;2022-12-07T05:27:47;2.47;;;2.37;;
19057;SDS011;9662;53.612;9.914;2022-12-07T05:30:16;2.60;;;2.50;;
19057;SDS011;9662;53.612;9.914;2022-12-07T05:32:43;1.77;;;1.77;;
19057;SDS011;9662;53.612;9.914;2022-12-07T05:35:10;2.10;;;2.00;;
19057;SDS011;9662;53.612;9.914;2022-12-07T05:37:37;2.30;;;2.20;;
19057;SDS011;9662;53.612;9.914;2022-12-07T05:40:06;2.45;;;2.30;;
19057;SDS011;9662;53.612;9.914;2022-12-07T05:42:33;2.72;;;2.17;;
19057;SDS011;9662;53.612;9.914;2022-12-07T05:45:00;2.47;;;2.27;;
19057;SDS011;9662;53.612;9.914;2022-12-07T05:47:29;2.30;;;2.20;;
19057;SDS011;9662;53.612;9.914;2022-12-07T05:49:56;2.80;;;2.25;;
19057;SDS011;9662;53.612;9.914;2022-12-07T05:52:23;2.50;;;2.40;;
19057;SDS011;9662;53.612;9.914;2022-12-07T05:54:50;2.22;;;2.22;;
19057;SDS011;9662;53.612;9.914;2022-12-07T05:57:18;2.85;;;2.60;;
19057;SDS011;9662;53.612;9.914;2022-12-07T05:59:45;2.90;;;2.70;;
19057;SDS011;9662;53.612;9.914;2022-12-07T06:02:12;4.80;;;2.22;;
19057;SDS011;9662;53.612;9.914;2022-12-07T06:04:41;3.35;;;2.30;;
19057;SDS011;9662;53.612;9.914;2022-12-07T06:07:09;3.00;;;2.25;;
19057;SDS011;9662;53.612;9.914;2022-12-07T06:09:37;2.13;;;2.03;;
19057;SDS011;9662;53.612;9.914;2022-12-07T06:12:04;5.25;;;2.35;;
19057;SDS011;9662;53.612;9.914;2022-12-07T06:14:49;2.40;;;2.35;;
19057;SDS011;9662;53.612;9.914;2022-12-07T06:17:16;3.50;;;2.33;;
19057;SDS011;9662;53.612;9.914;2022-12-07T06:19:45;5.50;;;2.42;;
19057;SDS011;9662;53.612;9.914;2022-12-07T06:22:12;7.35;;;2.40;;
19057;SDS011;9662;53.612;9.914;2022-12-07T06:24:41;2.63;;;2.30;;
19057;SDS011;9662;53.612;9.914;2022-12-07T06:27:08;4.18;;;2.20;;
19057;SDS011;9662;53.612;9.914;2022-12-07T06:29:36;3.20;;;2.70;;
19057;SDS011;9662;53.612;9.914;2022-12-07T06:32:03;2.13;;;2.08;;
19057;SDS011;9662;53.612;9.914;2022-12-07T06:34:30;2.50;;;2.00;;
19057;SDS011;9662;53.612;9.914;2022-12-07T06:36:59;1.90;;;1.90;;
19057;SDS011;9662;53.612;9.914;2022-12-07T06:39:27;6.00;;;2.40;;
19057;SDS011;9662;53.612;9.914;2022-12-07T06:41:55;2.97;;;2.70;;
19057;SDS011;9662;53.612;9.914;2022-12-07T06:44:22;2.53;;;2.43;;
19057;SDS011;9662;53.612;9.914;2022-12-07T06:46:50;2.10;;;2.10;;
19057;SDS011;9662;53.612;9.914;2022-12-07T06:49:17;3.00;;;2.40;;
19057;SDS011;9662;53.612;9.914;2022-12-07T06:51:44;4.28;;;2.40;;
19057;SDS011;9662;53.612;9.914;2022-12-07T06:54:14;2.50;;;2.30;;
19057;SDS011;9662;53.612;9.914;2022-12-07T06:56:41;2.47;;;2.20;;
19057;SDS011;9662;53.612;9.914;2022-12-07T06:59:08;2.17;;;1.90;;
19057;SDS011;9662;53.612;9.914;2022-12-07T07:01:36;6.32;;;2.28;;
19057;SDS011;9662;53.612;9.914;2022-12-07T07:04:03;1.95;;;1.85;;
19057;SDS011;9662;53.612;9.914;2022-12-07T07:06:30;2.40;;;1.80;;
19057;SDS011;9662;53.612;9.914;2022-12-07T07:08:57;2.53;;;1.92;;
19057;SDS011;9662;53.612;9.914;2022-12-07T07:11:26;1.70;;;1.70;;
19057;SDS011;9662;53.612;9.914;2022-12-07T07:13:53;2.72;;;1.70;;
19057;SDS011;9662;53.612;9.914;2022-12-07T07:16:22;2.88;;;2.03;;
19057;SDS011;9662;53.612;9.914;2022-12-07T07:18:49;2.00;;;1.90;;
19057;SDS011;9662;53.612;9.914;2022-12-07T07:21:16;5.73;;;1.87;;
19057;SDS011;9662;53.612;9.914;2022-12-07T07:23:43;2.72;;;1.90;;
19057;SDS011;9662;53.612;9.914;2022-12-07T07:26:10;2.03;;;1.90;;
19057;SDS011;9662;53.612;9.914;2022-12-07T07:28:39;1.73;;;1.73;;
19057;SDS011;9662;53.612;9.914;2022-12-07T07:31:06;2.83;;;2.03;;
19057;SDS011;9662;53.612;9.914;2022-12-07T07:33:33;2.55;;;2.35;;
19057;SDS011;9662;53.612;9.914;2022-12-07T07:36:00;2.50;;;2.05;;
19057;SDS011;9662;53.612;9.914;2022-12-07T07:38:27;1.70;;;1.70;;
19057;SDS011;9662;53.612;9.914;2022-12-07T07:40:55;3.35;;;2.13;;
19057;SDS011;9662;53.612;9.914;2022-12-07T07:43:22;1.70;;;1.60;;
19057;SDS011;9662;53.612;9.914;2022-12-07T07:45:50;1.83;;;1.83;;
19057;SDS011;9662;53.612;9.914;2022-12-07T07:48:17;2.10;;;2.00;;
19057;SDS011;9662;53.612;9.914;2022-12-07T07:50:44;2.78;;;1.88;;
19057;SDS011;9662;53.612;9.914;2022-12-07T07:53:11;2.22;;;1.90;;
19057;SDS011;9662;53.612;9.914;2022-12-07T07:55:39;1.75;;;1.75;;
19057;SDS011;9662;53.612;9.914;2022-12-07T07:58:06;4.10;;;1.50;;
19057;SDS011;9662;53.612;9.914;2022-12-07T08:00:33;2.10;;;1.90;;
19057;SDS011;9662;53.612;9.914;2022-12-07T08:03:01;3.05;;;1.70;;
19057;SDS011;9662;53.612;9.914;2022-12-07T08:05:28;1.83;;;1.58;;
19057;SDS011;9662;53.612;9.914;2022-12-07T08:07:57;3.30;;;1.50;;
19057;SDS011;9662;53.612;9.914;2022-12-07T08:10:24;2.03;;;1.92;;
19057;SDS011;9662;53.612;9.914;2022-12-07T08:12:51;5.00;;;1.30;;
19057;SDS011;9662;53.612;9.914;2022-12-07T08:15:37;1.50;;;1.50;;
19057;SDS011;9662;53.612;9.914;2022-12-07T08:18:06;4.38;;;1.70;;
19057;SDS011;9662;53.612;9.914;2022-12-07T08:20:34;1.80;;;1.70;;
19057;SDS011;9662;53.612;9.914;2022-12-07T08:23:01;2.65;;;2.22;;
19057;SDS011;9662;53.612;9.914;2022-12-07T08:25:29;1.90;;;1.73;;
19057;SDS011;9662;53.612;9.914;2022-12-07T08:27:56;2.42;;;1.85;;
19057;SDS011;9662;53.612;9.914;2022-12-07T08:30:23;1.50;;;1.50;;
19057;SDS011;9662;53.612;9.914;2022-12-07T08:32:50;1.60;;;1.50;;
19057;SDS011;9662;53.612;9.914;2022-12-07T08:35:18;1.60;;;1.50;;
19057;SDS011;9662;53.612;9.914;2022-12-07T08:37:46;3.00;;;1.90;;
19057;SDS011;9662;53.612;9.914;2022-12-07T08:40:13;1.65;;;1.50;;
19057;SDS011;9662;53.612;9.914;2022-12-07T08:42:41;1.77;;;1.73;;
19057;SDS011;9662;53.612;9.914;2022-12-07T08:45:10;3.22;;;1.98;;
19057;SDS011;9662;53.612;9.914;2022-12-07T08:47:38;4.03;;;2.00;;
19057;SDS011;9662;53.612;9.914;2022-12-07T08:50:07;3.17;;;1.83;;
19057;SDS011;9662;53.612;9.914;2022-12-07T08:52:37;9.00;;;2.00;;
19057;SDS011;9662;53.612;9.914;2022-12-07T08:55:05;3.57;;;1.90;;
19057;SDS011;9662;53.612;9.914;2022-12-07T08:57:32;2.00;;;1.90;;
19057;SDS011;9662;53.612;9.914;2022-12-07T09:00:02;4.45;;;1.98;;
19057;SDS011;9662;53.612;9.914;2022-12-07T09:02:29;1.85;;;1.50;;
19057;SDS011;9662;53.612;9.914;2022-12-07T09:04:57;1.48;;;1.40;;
19057;SDS011;9662;53.612;9.914;2022-12-07T09:07:24;2.25;;;2.05;;
19057;SDS011;9662;53.612;9.914;2022-12-07T09:09:53;8.65;;;1.90;;
19057;SDS011;9662;53.612;9.914;2022-12-07T09:12:21;2.20;;;2.10;;
19057;SDS011;9662;53.612;9.914;2022-12-07T09:14:48;2.90;;;1.90;;
19057;SDS011;9662;53.612;9.914;2022-12-07T09:17:15;2.00;;;1.80;;
19057;SDS011;9662;53.612;9.914;2022-12-07T09:19:42;1.93;;;1.83;;
19057;SDS011;9662;53.612;9.914;2022-12-07T09:22:09;1.52;;;1.52;;
19057;SDS011;9662;53.612;9.914;2022-12-07T09:24:36;1.73;;;1.73;;
19057;SDS011;9662;53.612;9.914;2022-12-07T09:27:05;2.38;;;2.17;;
19057;SDS011;9662;53.612;9.914;2022-12-07T09:29:32;1.55;;;1.55;;
19057;SDS011;9662;53.612;9.914;2022-12-07T09:31:59;5.75;;;1.75;;
19057;SDS011;9662;53.612;9.914;2022-12-07T09:34:26;2.40;;;2.00;;
19057;SDS011;9662;53.612;9.914;2022-12-07T09:36:54;2.08;;;1.98;;
19057;SDS011;9662;53.612;9.914;2022-12-07T09:39:21;1.75;;;1.65;;
19057;SDS011;9662;53.612;9.914;2022-12-07T09:41:48;13.48;;;2.10;;
19057;SDS011;9662;53.612;9.914;2022-12-07T09:44:19;2.90;;;1.70;;
19057;SDS011;9662;53.612;9.914;2022-12-07T09:46:47;3.50;;;1.92;;
19057;SDS011;9662;53.612;9.914;2022-12-07T09:49:16;2.40;;;1.73;;
19057;SDS011;9662;53.612;9.914;2022-12-07T09:51:45;4.35;;;2.10;;
19057;SDS011;9662;53.612;9.914;2022-12-07T09:54:12;1.63;;;1.52;;
19057;SDS011;9662;53.612;9.914;2022-12-07T09:56:40;5.53;;;1.70;;
19057;SDS011;9662;53.612;9.914;2022-12-07T09:59:09;2.20;;;2.10;;
19057;SDS011;9662;53.612;9.914;2022-12-07T10:01:40;1.88;;;1.77;;
19057;SDS011;9662;53.612;9.914;2022-12-07T10:04:09;4.93;;;1.83;;
19057;SDS011;9662;53.612;9.914;2022-12-07T10:06:37;1.92;;;1.63;;
19057;SDS011;9662;53.612;9.914;2022-12-07T10:09:08;1.90;;;1.60;;
19057;SDS011;9662;53.612;9.914;2022-12-07T10:11:38;2.50;;;1.92;;
19057;SDS011;9662;53.612;9.914;2022-12-07T10:14:24;5.90;;;1.85;;
19057;SDS011;9662;53.612;9.914;2022-12-07T10:16:55;3.33;;;1.50;;
19057;SDS011;9662;53.612;9.914;2022-12-07T10:19:23;1.88;;;1.70;;
19057;SDS011;9662;53.612;9.914;2022-12-07T10:22:00;5.00;;;1.73;;
19057;SDS011;9662;53.612;9.914;2022-12-07T10:24:28;7.70;;;1.67;;
19057;SDS011;9662;53.612;9.914;2022-12-07T10:26:55;2.95;;;1.67;;
19057;SDS011;9662;53.612;9.914;2022-12-07T10:29:23;1.25;;;1.25;;
19057;SDS011;9662;53.612;9.914;2022-12-07T10:31:52;7.80;;;2.33;;
19057;SDS011;9662;53.612;9.914;2022-12-07T10:34:23;4.20;;;1.90;;
19057;SDS011;9662;53.612;9.914;2022-12-07T10:36:51;1.67;;;1.60;;
19057;SDS011;9662;53.612;9.914;2022-12-07T10:39:18;2.55;;;1.85;;
19057;SDS011;9662;53.612;9.914;2022-12-07T10:41:53;5.38;;;1.83;;
19057;SDS011;9662;53.612;9.914;2022-12-07T10:44:21;2.00;;;1.40;;
19057;SDS011;9662;53.612;9.914;2022-12-07T10:52:23;1.50;;;1.30;;
19057;SDS011;9662;53.612;9.914;2022-12-07T10:54:58;3.40;;;1.45;;
19057;SDS011;9662;53.612;9.914;2022-12-07T10:57:34;2.15;;;1.88;;
19057;SDS011;9662;53.612;9.914;2022-12-07T11:00:11;1.60;;;1.50;;
19057;SDS011;9662;53.612;9.914;2022-12-07T11:02:45;3.40;;;1.58;;
19057;SDS011;9662;53.612;9.914;2022-12-07T11:05:17;3.55;;;1.75;;
19057;SDS011;9662;53.612;9.914;2022-12-07T11:07:49;4.90;;;1.80;;
19057;SDS011;9662;53.612;9.914;2022-12-07T11:10:19;2.75;;;1.35;;
19057;SDS011;9662;53.612;9.914;2022-12-07T11:12:56;4.93;;;1.60;;
19057;SDS011;9662;53.612;9.914;2022-12-07T11:15:28;2.13;;;1.40;;
19057;SDS011;9662;53.612;9.914;2022-12-07T11:18:00;1.42;;;1.33;;
19057;SDS011;9662;53.612;9.914;2022-12-07T11:20:34;3.90;;;1.65;;
19057;SDS011;9662;53.612;9.914;2022-12-07T11:23:07;3.10;;;1.63;;
19057;SDS011;9662;53.612;9.914;2022-12-07T11:25:39;1.60;;;1.50;;
19057;SDS011;9662;53.612;9.914;2022-12-07T11:28:13;1.48;;;1.48;;
19057;SDS011;9662;53.612;9.914;2022-12-07T11:30:45;5.72;;;1.95;;
19057;SDS011;9662;53.612;9.914;2022-12-07T11:33:15;3.15;;;1.75;;
19057;SDS011;9662;53.612;9.914;2022-12-07T11:35:47;1.55;;;1.45;;
19057;SDS011;9662;53.612;9.914;2022-12-07T11:38:18;7.87;;;2.07;;
19057;SDS011;9662;53.612;9.914;2022-12-07T11:40:48;1.45;;;1.45;;
19057;SDS011;9662;53.612;9.914;2022-12-07T11:43:19;2.80;;;1.90;;
19057;SDS011;9662;53.612;9.914;2022-12-07T11:45:50;3.60;;;1.85;;
19057;SDS011;9662;53.612;9.914;2022-12-07T11:48:20;2.78;;;1.70;;
19057;SDS011;9662;53.612;9.914;2022-12-07T11:50:50;4.40;;;1.53;;
19057;SDS011;9662;53.612;9.914;2022-12-07T11:53:22;1.50;;;1.40;;
19057;SDS011;9662;53.612;9.914;2022-12-07T11:55:52;3.60;;;1.40;;
19057;SDS011;9662;53.612;9.914;2022-12-07T11:58:29;3.53;;;1.60;;
19057;SDS011;9662;53.612;9.914;2022-12-07T12:01:05;5.30;;;1.50;;
19057;SDS011;9662;53.612;9.914;2022-12-07T12:03:37;4.80;;;1.88;;
19057;SDS011;9662;53.612;9.914;2022-12-07T12:06:07;4.95;;;1.77;;
19057;SDS011;9662;53.612;9.914;2022-12-07T12:08:36;1.10;;;1.10;;
19057;SDS011;9662;53.612;9.914;2022-12-07T12:11:08;5.20;;;1.50;;
19057;SDS011;9662;53.612;9.914;2022-12-07T12:19:14;6.70;;;1.47;;
19057;SDS011;9662;53.612;9.914;2022-12-07T12:21:44;3.40;;;1.40;;
19057;SDS011;9662;53.612;9.914;2022-12-07T12:24:15;7.78;;;1.83;;
19057;SDS011;9662;53.612;9.914;2022-12-07T12:26:48;3.08;;;1.83;;
19057;SDS011;9662;53.612;9.914;2022-12-07T12:29:19;4.65;;;1.77;;
19057;SDS011;9662;53.612;9.914;2022-12-07T12:31:48;5.40;;;1.55;;
19057;SDS011;9662;53.612;9.914;2022-12-07T12:34:33;2.55;;;1.38;;
19057;SDS011;9662;53.612;9.914;2022-12-07T12:37:00;3.00;;;1.45;;
19057;SDS011;9662;53.612;9.914;2022-12-07T12:39:29;3.83;;;1.70;;
19057;SDS011;9662;53.612;9.914;2022-12-07T12:41:59;1.48;;;1.38;;
19057;SDS011;9662;53.612;9.914;2022-12-07T12:44:39;4.35;;;1.65;;
19057;SDS011;9662;53.612;9.914;2022-12-07T12:47:37;9.02;;;1.63;;
19057;SDS011;9662;53.612;9.914;2022-12-07T12:50:15;2.13;;;1.92;;
19057;SDS011;9662;53.612;9.914;2022-12-07T12:52:48;2.77;;;1.60;;
19057;SDS011;9662;53.612;9.914;2022-12-07T12:55:18;4.10;;;1.58;;
19057;SDS011;9662;53.612;9.914;2022-12-07T12:57:47;2.50;;;1.40;;
19057;SDS011;9662;53.612;9.914;2022-12-07T13:00:18;4.10;;;2.22;;
19057;SDS011;9662;53.612;9.914;2022-12-07T13:02:49;8.55;;;1.63;;
19057;SDS011;9662;53.612;9.914;2022-12-07T13:05:19;5.32;;;1.80;;
19057;SDS011;9662;53.612;9.914;2022-12-07T13:07:49;1.70;;;1.60;;
19057;SDS011;9662;53.612;9.914;2022-12-07T13:10:21;2.77;;;1.43;;
19057;SDS011;9662;53.612;9.914;2022-12-07T13:12:57;4.40;;;1.70;;
19057;SDS011;9662;53.612;9.914;2022-12-07T13:15:31;9.88;;;2.10;;
19057;SDS011;9662;53.612;9.914;2022-12-07T13:18:02;2.90;;;1.63;;
19057;SDS011;9662;53.612;9.914;2022-12-07T13:20:46;7.40;;;1.80;;
19057;SDS011;9662;53.612;9.914;2022-12-07T13:23:16;2.70;;;1.77;;
19057;SDS011;9662;53.612;9.914;2022-12-07T13:25:46;7.38;;;1.58;;
19057;SDS011;9662;53.612;9.914;2022-12-07T13:28:16;4.65;;;1.50;;
19057;SDS011;9662;53.612;9.914;2022-12-07T13:30:50;4.15;;;1.63;;
19057;SDS011;9662;53.612;9.914;2022-12-07T13:33:20;1.83;;;1.70;;
19057;SDS011;9662;53.612;9.914;2022-12-07T13:35:48;2.17;;;1.83;;
19057;SDS011;9662;53.612;9.914;2022-12-07T13:38:23;3.15;;;1.90;;
19057;SDS011;9662;53.612;9.914;2022-12-07T13:41:05;3.17;;;1.50;;
19057;SDS011;9662;53.612;9.914;2022-12-07T13:43:46;3.00;;;1.67;;
19057;SDS011;9662;53.612;9.914;2022-12-07T13:46:14;5.05;;;1.60;;
19057;SDS011;9662;53.612;9.914;2022-12-07T13:48:44;2.77;;;1.50;;
19057;SDS011;9662;53.612;9.914;2022-12-07T13:51:18;2.80;;;1.95;;
19057;SDS011;9662;53.612;9.914;2022-12-07T13:53:46;5.55;;;1.80;;
19057;SDS011;9662;53.612;9.914;2022-12-07T13:56:13;1.83;;;1.45;;
19057;SDS011;9662;53.612;9.914;2022-12-07T13:58:41;1.60;;;1.25;;
19057;SDS011;9662;53.612;9.914;2022-12-07T14:01:08;5.18;;;1.60;;
19057;SDS011;9662;53.612;9.914;2022-12-07T14:03:35;7.30;;;2.40;;
19057;SDS011;9662;53.612;9.914;2022-12-07T14:06:10;3.50;;;2.33;;
19057;SDS011;9662;53.612;9.914;2022-12-07T14:08:42;1.70;;;1.60;;
19057;SDS011;9662;53.612;9.914;2022-12-07T14:11:10;2.00;;;1.50;;
19057;SDS011;9662;53.612;9.914;2022-12-07T14:13:40;1.30;;;1.30;;
19057;SDS011;9662;53.612;9.914;2022-12-07T14:16:18;3.60;;;2.00;;
19057;SDS011;9662;53.612;9.914;2022-12-07T14:18:49;2.55;;;1.63;;
19057;SDS011;9662;53.612;9.914;2022-12-07T14:21:17;4.20;;;1.40;;
19057;SDS011;9662;53.612;9.914;2022-12-07T14:23:47;2.83;;;1.42;;
19057;SDS011;9662;53.612;9.914;2022-12-07T14:26:29;1.73;;;1.73;;
19057;SDS011;9662;53.612;9.914;2022-12-07T14:29:10;2.87;;;1.87;;
19057;SDS011;9662;53.612;9.914;2022-12-07T14:31:45;3.90;;;1.67;;
19057;SDS011;9662;53.612;9.914;2022-12-07T14:34:12;1.70;;;1.30;;
19057;SDS011;9662;53.612;9.914;2022-12-07T14:36:40;3.80;;;1.80;;
19057;SDS011;9662;53.612;9.914;2022-12-07T14:39:08;2.60;;;1.80;;
19057;SDS011;9662;53.612;9.914;2022-12-07T14:41:35;6.53;;;1.80;;
19057;SDS011;9662;53.612;9.914;2022-12-07T14:44:18;4.13;;;1.80;;
19057;SDS011;9662;53.612;9.914;2022-12-07T14:46:45;2.80;;;2.13;;
19057;SDS011;9662;53.612;9.914;2022-12-07T14:49:12;2.10;;;2.00;;
19057;SDS011;9662;53.612;9.914;2022-12-07T14:51:40;3.40;;;2.38;;
19057;SDS011;9662;53.612;9.914;2022-12-07T14:54:11;4.10;;;2.20;;
19057;SDS011;9662;53.612;9.914;2022-12-07T14:56:40;1.75;;;1.75;;
19057;SDS011;9662;53.612;9.914;2022-12-07T14:59:08;2.00;;;1.40;;
19057;SDS011;9662;53.612;9.914;2022-12-07T15:01:35;4.75;;;1.70;;
19057;SDS011;9662;53.612;9.914;2022-12-07T15:04:03;3.72;;;2.00;;
19057;SDS011;9662;53.612;9.914;2022-12-07T15:06:30;15.10;;;2.00;;
19057;SDS011;9662;53.612;9.914;2022-12-07T15:08:57;3.10;;;1.80;;
19057;SDS011;9662;53.612;9.914;2022-12-07T15:11:25;9.60;;;1.85;;
19057;SDS011;9662;53.612;9.914;2022-12-07T15:13:53;1.85;;;1.52;;
19057;SDS011;9662;53.612;9.914;2022-12-07T15:16:37;2.80;;;1.60;;
19057;SDS011;9662;53.612;9.914;2022-12-07T15:19:05;5.00;;;2.20;;
19057;SDS011;9662;53.612;9.914;2022-12-07T15:21:32;5.30;;;2.17;;
19057;SDS011;9662;53.612;9.914;2022-12-07T15:24:00;8.10;;;2.17;;
19057;SDS011;9662;53.612;9.914;2022-12-07T15:26:28;3.08;;;1.80;;